Time;durP1;ratioP1;P1;durP2;ratioP2;P2;SDS_P1;SDS_P2;PMS_P1;PMS_P2;Temp;Humidity;BMP_temperature;BMP_pressure;BME280_temperature;BME280_humidity;BME280_pressure;Samples;Min_cycle;Max_cycle;Signal;HPM_P1;HPM_P2
2022/07/30 00:02:02;;;;;;;14.73;13.00;;;;;;;17.97;89.85;100420.06;5119014;28;20485;-66
2022/07/30 00:04:31;;;;;;;12.53;11.27;;;;;;;17.99;90.54;100417.19;5120242;28;20422;-66
2022/07/30 00:06:59;;;;;;;16.10;12.57;;;;;;;18.09;90.04;100419.59;5119223;28;20477;-67
2022/07/30 00:09:26;;;;;;;14.80;12.90;;;;;;;18.15;89.88;100414.28;5119884;28;20571;-66
2022/07/30 00:11:53;;;;;;;14.10;12.70;;;;;;;18.05;90.09;100409.16;5118229;28;20503;-66
2022/07/30 00:14:19;;;;;;;13.70;12.40;;;;;;;17.97;90.73;100411.94;5119915;28;20430;-66
2022/07/30 00:16:46;;;;;;;14.47;13.03;;;;;;;18.08;90.57;100418.78;5118615;28;20497;-66
2022/07/30 00:19:13;;;;;;;15.13;13.33;;;;;;;18.22;90.06;100411.69;5119553;28;20474;-66
2022/07/30 00:21:40;;;;;;;17.00;14.60;;;;;;;18.12;90.57;100416.53;5118538;28;20485;-66
2022/07/30 00:24:08;;;;;;;15.13;13.70;;;;;;;18.23;89.74;100416.91;5119695;28;20472;-66
2022/07/30 00:26:35;;;;;;;14.97;13.40;;;;;;;18.31;88.91;100413.25;5118350;28;20481;-67
2022/07/30 00:29:02;;;;;;;16.23;13.50;;;;;;;18.32;89.14;100406.00;5119032;28;20461;-66
2022/07/30 00:31:29;;;;;;;14.13;12.80;;;;;;;18.25;89.38;100408.59;5118994;28;20489;-66
2022/07/30 00:33:56;;;;;;;13.90;12.57;;;;;;;18.32;88.91;100406.00;5119128;28;20456;-66
2022/07/30 00:36:22;;;;;;;14.97;12.60;;;;;;;18.36;88.91;100401.88;5118578;28;20482;-67
2022/07/30 00:38:49;;;;;;;15.10;12.90;;;;;;;18.36;88.81;100400.00;5119212;28;20990;-66
2022/07/30 00:41:19;;;;;;;14.93;12.30;;;;;;;18.37;89.25;100400.88;5117682;28;20495;-67
2022/07/30 00:43:46;;;;;;;14.00;12.67;;;;;;;18.44;89.09;100396.38;5119153;28;20431;-67
2022/07/30 00:46:13;;;;;;;13.67;12.40;;;;;;;18.42;88.87;100393.84;5118308;28;20470;-66
2022/07/30 00:48:40;;;;;;;13.73;12.50;;;;;;;18.40;89.03;100395.91;5118960;28;20476;-67
2022/07/30 00:51:07;;;;;;;15.03;13.17;;;;;;;18.40;88.58;100395.03;5119648;28;20519;-67
2022/07/30 00:53:34;;;;;;;15.70;14.00;;;;;;;18.36;88.10;100393.75;5125873;28;20462;-66
2022/07/30 00:56:01;;;;;;;15.47;13.87;;;;;;;18.18;88.80;100392.28;5124830;27;20493;-67
2022/07/30 00:58:30;;;;;;;15.10;13.60;;;;;;;18.28;89.09;100391.13;5125771;28;20861;-67
2022/07/30 01:00:57;;;;;;;14.93;13.23;;;;;;;18.35;89.07;100395.63;5125295;27;20482;-67
2022/07/30 01:03:24;;;;;;;14.50;13.10;;;;;;;18.31;89.05;100383.47;5125916;28;20455;-67
2022/07/30 01:05:51;;;;;;;16.13;13.13;;;;;;;18.29;89.79;100387.41;5125420;27;20515;-67
2022/07/30 01:08:18;;;;;;;17.10;14.23;;;;;;;18.29;89.32;100380.13;5126020;28;20485;-67
2022/07/30 01:10:45;;;;;;;20.87;13.83;;;;;;;18.19;89.57;100376.88;5125497;28;20518;-67
2022/07/30 01:13:12;;;;;;;15.03;13.43;;;;;;;18.21;89.70;100374.81;5125370;28;20454;-67
2022/07/30 01:15:41;;;;;;;18.97;14.43;;;;;;;18.18;90.11;100373.34;5125491;28;20465;-67
2022/07/30 01:18:10;;;;;;;16.27;14.63;;;;;;;18.06;90.07;100367.53;5125142;28;20481;-67
2022/07/30 01:20:41;;;;;;;16.80;15.23;;;;;;;18.07;90.37;100362.97;5125061;28;20469;-67
2022/07/30 01:23:12;;;;;;;17.13;15.30;;;;;;;18.06;90.21;100361.31;5125747;28;21063;-67
2022/07/30 01:25:53;;;;;;;17.57;15.57;;;;;;;17.96;90.35;100360.75;5125364;28;20499;-67
2022/07/30 01:28:24;;;;;;;19.40;14.73;;;;;;;17.98;90.19;100359.50;5125236;28;20450;-67
2022/07/30 01:30:51;;;;;;;19.83;16.13;;;;;;;17.94;90.00;100360.91;5124542;27;20473;-67
2022/07/30 01:33:18;;;;;;;16.37;14.87;;;;;;;17.95;90.21;100359.91;5125689;28;20454;-67
2022/07/30 01:35:47;;;;;;;22.50;15.47;;;;;;;17.99;90.33;100361.22;5125056;28;20461;-67
2022/07/30 01:38:16;;;;;;;16.43;14.70;;;;;;;18.01;90.28;100359.16;5125672;28;20991;-67
2022/07/30 01:40:43;;;;;;;16.37;14.60;;;;;;;18.04;90.16;100356.06;5124785;28;20486;-67
2022/07/30 01:43:12;;;;;;;18.30;14.80;;;;;;;18.05;89.85;100352.34;5125182;28;20438;-67
2022/07/30 01:45:39;;;;;;;18.27;14.97;;;;;;;18.03;90.00;100357.09;5125125;27;20500;-67
2022/07/30 01:48:09;;;;;;;18.60;15.30;;;;;;;18.06;90.05;100362.13;5124274;28;20449;-67
2022/07/30 01:50:36;;;;;;;18.57;14.10;;;;;;;18.06;89.63;100362.13;5125154;28;20488;-67
2022/07/30 01:53:03;;;;;;;15.80;14.10;;;;;;;18.06;89.76;100364.84;5125684;28;20483;-67
2022/07/30 01:55:32;;;;;;;24.50;15.30;;;;;;;18.05;89.48;100357.75;5125132;28;20469;-67
2022/07/30 01:58:00;;;;;;;18.33;15.50;;;;;;;18.02;89.28;100368.94;5124577;28;20466;-67
2022/07/30 02:00:30;;;;;;;18.60;14.20;;;;;;;17.98;89.59;100372.22;5125318;27;20465;-67
2022/07/30 02:02:57;;;;;;;22.83;14.67;;;;;;;17.86;89.76;100361.88;5123632;28;20469;-67
2022/07/30 02:05:24;;;;;;;17.00;14.63;;;;;;;17.89;89.77;100355.22;5121890;28;20437;-67
2022/07/30 02:07:57;;;;;;;20.40;15.27;;;;;;;17.89;89.77;100357.94;5121793;28;20840;-67
2022/07/30 02:10:29;;;;;;;16.70;13.87;;;;;;;17.93;89.92;100375.47;5121842;28;20427;-67
2022/07/30 02:12:59;;;;;;;16.47;14.73;;;;;;;17.68;90.72;100358.63;5121545;28;20445;-67
2022/07/30 02:15:30;;;;;;;17.57;15.77;;;;;;;17.82;90.22;100362.38;5121406;28;20460;-67
2022/07/30 02:18:02;;;;;;;16.20;14.60;;;;;;;17.81;89.91;100358.84;5120967;28;20453;-67
2022/07/30 02:20:30;;;;;;;20.00;14.17;;;;;;;17.96;89.46;100358.88;5121415;28;20457;-67
2022/07/30 02:23:00;;;;;;;19.67;15.43;;;;;;;17.84;89.65;100354.91;5121755;28;20462;-67
2022/07/30 02:25:28;;;;;;;19.40;14.93;;;;;;;17.81;90.06;100355.28;5121199;28;20461;-67
2022/07/30 02:27:57;;;;;;;17.33;15.53;;;;;;;17.79;89.95;100360.88;5120561;28;20959;-67
2022/07/30 02:30:26;;;;;;;18.67;14.73;;;;;;;17.92;89.91;100357.56;5121629;28;20963;-67
2022/07/30 02:32:57;;;;;;;15.40;13.77;;;;;;;18.10;88.84;100369.88;5122459;28;20506;-67
2022/07/30 02:35:25;;;;;;;17.50;14.30;;;;;;;18.00;88.25;100365.59;5121772;28;20438;-67
2022/07/30 02:37:53;;;;;;;16.80;14.60;;;;;;;17.81;89.46;100371.50;5122026;28;20614;-67
2022/07/30 02:40:21;;;;;;;14.90;13.40;;;;;;;17.68;90.01;100367.56;5121509;28;20838;-67
2022/07/30 02:42:50;;;;;;;18.60;15.00;;;;;;;17.68;90.58;100364.88;5121653;28;20486;-67
2022/07/30 02:45:18;;;;;;;18.53;15.60;;;;;;;17.70;91.02;100362.00;5121740;28;20422;-67
2022/07/30 02:47:46;;;;;;;20.53;15.43;;;;;;;17.68;90.81;100358.63;5120812;28;20931;-67
2022/07/30 02:50:15;;;;;;;16.33;14.60;;;;;;;17.71;91.00;100360.97;5121436;28;20441;-67
2022/07/30 02:52:42;;;;;;;21.10;16.07;;;;;;;17.78;90.51;100361.91;5122025;28;21095;-67
2022/07/30 02:55:10;;;;;;;16.00;14.30;;;;;;;17.78;90.03;100363.78;5121131;28;20426;-67
2022/07/30 02:57:38;;;;;;;14.77;13.37;;;;;;;17.82;89.74;100367.78;5121127;28;20478;-67
2022/07/30 03:00:06;;;;;;;17.60;15.90;;;;;;;17.69;89.74;100361.16;5122186;28;20426;-67
2022/07/30 03:02:33;;;;;;;18.50;16.43;;;;;;;17.58;90.67;100371.56;5121493;28;20473;-67
2022/07/30 03:05:01;;;;;;;18.93;16.03;;;;;;;17.63;90.83;100371.88;5121579;28;20912;-68
2022/07/30 03:07:30;;;;;;;16.07;14.37;;;;;;;17.66;90.69;100376.91;5121169;28;21025;-67
2022/07/30 03:09:57;;;;;;;20.03;15.67;;;;;;;17.54;91.34;100379.22;5121506;28;20442;-67
2022/07/30 03:12:24;;;;;;;18.13;16.20;;;;;;;17.63;91.18;100383.50;5120391;28;20470;-67
2022/07/30 03:14:51;;;;;;;21.23;15.80;;;;;;;17.76;90.96;100380.19;5121505;28;20461;-67
2022/07/30 03:17:19;;;;;;;16.93;15.13;;;;;;;17.74;90.34;100373.28;5119894;28;20481;-67
2022/07/30 03:19:47;;;;;;;17.30;15.60;;;;;;;17.78;90.30;100380.84;5121098;28;20457;-67
2022/07/30 03:22:14;;;;;;;19.33;14.73;;;;;;;17.61;90.40;100384.72;5120704;28;20482;-67
2022/07/30 03:24:44;;;;;;;16.77;14.73;;;;;;;17.59;91.05;100390.31;5121045;28;20871;-67
2022/07/30 03:27:12;;;;;;;15.67;14.17;;;;;;;17.59;91.00;100390.31;5120002;28;20511;-67
2022/07/30 03:29:39;;;;;;;18.00;15.80;;;;;;;17.65;91.14;100386.03;5120885;28;20584;-67
2022/07/30 03:32:07;;;;;;;17.70;15.70;;;;;;;17.62;91.21;100383.69;5119605;28;20474;-67
2022/07/30 03:34:34;;;;;;;18.77;16.83;;;;;;;17.58;91.46;100390.50;5120403;28;20430;-67
2022/07/30 03:37:01;;;;;;;20.60;17.70;;;;;;;17.68;91.30;100396.50;5119591;28;20490;-67
2022/07/30 03:39:28;;;;;;;17.07;15.37;;;;;;;17.80;90.54;100397.72;5120249;28;20446;-67
2022/07/30 03:41:56;;;;;;;17.47;15.93;;;;;;;17.82;90.43;100403.78;5118876;28;20506;-67
2022/07/30 03:44:23;;;;;;;17.90;15.90;;;;;;;17.80;90.09;100395.00;5120344;28;20448;-67
2022/07/30 03:46:51;;;;;;;18.63;16.73;;;;;;;17.79;89.95;100392.50;5118786;28;20530;-67
2022/07/30 03:49:18;;;;;;;18.13;16.40;;;;;;;17.82;90.38;100397.53;5119916;28;20442;-67
2022/07/30 03:51:46;;;;;;;21.87;18.37;;;;;;;17.79;90.31;100397.91;5119522;28;20466;-68
2022/07/30 03:54:13;;;;;;;17.77;15.97;;;;;;;17.78;90.68;100396.25;5120012;28;20426;-68
2022/07/30 03:56:40;;;;;;;16.70;15.20;;;;;;;17.77;90.62;100394.53;5119294;28;20474;-68
2022/07/30 03:59:09;;;;;;;18.20;16.40;;;;;;;17.71;90.92;100406.94;5119493;28;20450;-68
2022/07/30 04:01:36;;;;;;;21.97;18.40;;;;;;;17.71;90.88;100398.84;5119657;28;20489;-68
2022/07/30 04:04:06;;;;;;;19.50;17.50;;;;;;;17.78;90.95;100399.78;5120084;28;20431;-67
2022/07/30 04:06:38;;;;;;;20.73;18.57;;;;;;;17.80;91.28;100407.72;5119690;28;20474;-67
2022/07/30 04:09:05;;;;;;;20.77;18.57;;;;;;;17.80;91.07;100405.00;5120066;28;20453;-67
2022/07/30 04:11:32;;;;;;;19.73;17.73;;;;;;;17.74;91.16;100412.00;5118611;28;21013;-67
2022/07/30 04:13:58;;;;;;;18.40;16.60;;;;;;;17.81;90.91;100414.78;5120271;28;20438;-67
2022/07/30 04:16:43;;;;;;;19.33;17.33;;;;;;;17.78;91.04;100423.28;5119172;28;20501;-67
2022/07/30 04:19:16;;;;;;;21.50;18.20;;;;;;;17.80;90.99;100422.06;5119633;28;20468;-67
2022/07/30 04:21:44;;;;;;;19.97;17.97;;;;;;;17.84;90.82;100425.22;5118974;28;20486;-67
2022/07/30 04:24:11;;;;;;;19.13;17.23;;;;;;;17.69;90.94;100422.53;5119799;28;20903;-67
2022/07/30 04:26:38;;;;;;;19.97;16.73;;;;;;;17.71;91.26;100431.28;5118044;28;20462;-67
2022/07/30 04:29:07;;;;;;;20.90;16.03;;;;;;;17.72;90.64;100435.66;5119516;28;20495;-67
2022/07/30 04:31:36;;;;;;;16.87;15.07;;;;;;;17.78;90.26;100437.63;5119209;28;20494;-67
2022/07/30 04:34:03;;;;;;;18.00;16.20;;;;;;;17.68;90.59;100434.34;5119944;28;20454;-67
2022/07/30 04:36:31;;;;;;;19.70;16.77;;;;;;;17.75;90.48;100439.88;5114154;28;20483;-67
2022/07/30 04:38:58;;;;;;;17.93;16.00;;;;;;;17.77;90.11;100432.41;5099061;28;20820;-67
2022/07/30 04:41:25;;;;;;;17.50;15.77;;;;;;;17.76;89.97;100444.22;5098007;28;20556;-67
2022/07/30 04:43:52;;;;;;;16.77;15.00;;;;;;;17.83;89.93;100437.09;5099289;28;20451;-67
2022/07/30 04:46:18;;;;;;;21.53;17.00;;;;;;;17.90;89.67;100438.06;5097781;28;20467;-67
2022/07/30 04:48:47;;;;;;;22.20;17.43;;;;;;;17.91;89.50;100433.50;5098454;28;20446;-67
2022/07/30 04:51:17;;;;;;;18.83;16.80;;;;;;;17.82;89.97;100440.81;5098661;28;20467;-67
2022/07/30 04:53:44;;;;;;;19.53;17.63;;;;;;;17.70;90.94;100435.00;5099117;28;20427;-67
2022/07/30 04:56:11;;;;;;;18.17;16.20;;;;;;;17.82;90.54;100436.22;5098275;28;20467;-67
2022/07/30 04:58:40;;;;;;;18.23;16.40;;;;;;;18.01;90.01;100445.72;5098772;28;20474;-67
2022/07/30 05:01:07;;;;;;;19.73;16.40;;;;;;;18.04;89.31;100437.25;5098689;28;20519;-67
2022/07/30 05:03:35;;;;;;;17.77;15.93;;;;;;;18.14;89.03;100441.53;5099140;28;20474;-67
2022/07/30 05:06:05;;;;;;;19.47;17.67;;;;;;;18.15;89.22;100446.75;5098256;28;20490;-67
2022/07/30 05:08:32;;;;;;;19.87;17.93;;;;;;;18.38;88.22;100440.41;5098495;28;20998;-67
2022/07/30 05:11:00;;;;;;;20.20;16.80;;;;;;;18.33;88.03;100441.00;5098306;28;20467;-67
2022/07/30 05:13:27;;;;;;;18.37;16.50;;;;;;;18.63;87.02;100446.38;5098285;28;20453;-67
2022/07/30 05:15:54;;;;;;;19.30;17.40;;;;;;;18.59;86.74;100439.66;5098491;28;20496;-67
2022/07/30 05:18:20;;;;;;;18.70;16.90;;;;;;;18.63;86.41;100436.38;5098214;28;20521;-67
2022/07/30 05:20:47;;;;;;;20.30;18.30;;;;;;;18.73;86.08;100446.94;5098219;28;20466;-67
2022/07/30 05:23:15;;;;;;;19.53;17.50;;;;;;;18.46;86.33;100450.31;5098647;28;20589;-67
2022/07/30 05:25:42;;;;;;;18.73;16.83;;;;;;;18.57;86.25;100456.09;5097919;28;20501;-67
2022/07/30 05:28:09;;;;;;;18.33;16.53;;;;;;;18.73;85.33;100459.63;5098262;28;20473;-68
2022/07/30 05:30:35;;;;;;;17.97;16.23;;;;;;;18.78;84.96;100451.78;5097994;28;20463;-68
2022/07/30 05:33:02;;;;;;;20.07;16.63;;;;;;;18.76;85.06;100454.66;5098405;28;20522;-67
2022/07/30 05:35:29;;;;;;;18.07;16.17;;;;;;;18.86;84.01;100454.41;5098270;28;20466;-67
2022/07/30 05:37:56;;;;;;;16.23;14.67;;;;;;;18.83;84.37;100449.38;5098271;28;20536;-67
2022/07/30 05:40:24;;;;;;;19.07;17.17;;;;;;;18.86;84.46;100456.28;5101688;28;20453;-67
2022/07/30 05:42:51;;;;;;;17.90;16.40;;;;;;;19.07;84.13;100461.75;5101659;28;20487;-67
2022/07/30 05:45:18;;;;;;;23.03;17.87;;;;;;;19.08;83.99;100463.44;5102032;28;20488;-69
2022/07/30 05:47:44;;;;;;;18.50;16.57;;;;;;;19.09;83.53;100469.69;5101886;28;20427;-68
2022/07/30 05:50:11;;;;;;;17.60;15.60;;;;;;;19.15;82.88;100467.03;5102133;28;20466;-67
2022/07/30 05:52:38;;;;;;;17.30;15.63;;;;;;;19.47;82.37;100467.56;5102188;28;20445;-70
2022/07/30 05:55:06;;;;;;;16.70;15.20;;;;;;;19.80;80.77;100468.94;5102455;28;20829;-69
2022/07/30 05:57:36;;;;;;;16.17;14.53;;;;;;;19.56;80.71;100477.28;5101163;28;20481;-68
2022/07/30 06:00:04;;;;;;;14.33;13.03;;;;;;;19.63;80.22;100473.78;5102469;28;20882;-69
2022/07/30 06:02:31;;;;;;;15.33;13.93;;;;;;;19.92;79.73;100481.78;5100967;28;20536;-66
2022/07/30 06:04:57;;;;;;;16.10;12.80;;;;;;;21.04;76.22;100476.41;5102174;28;20431;-69
2022/07/30 06:07:24;;;;;;;12.30;11.20;;;;;;;21.88;71.11;100471.56;5101490;28;20470;-68
2022/07/30 06:09:51;;;;;;;10.77;9.83;;;;;;;22.28;69.92;100474.25;5102172;28;20443;-68
2022/07/30 06:12:18;;;;;;;12.03;9.13;;;;;;;23.01;65.83;100475.91;5100547;28;20471;-67
2022/07/30 06:14:46;;;;;;;9.43;8.27;;;;;;;24.34;60.21;100480.44;5102320;28;20501;-70
2022/07/30 06:17:13;;;;;;;11.40;8.17;;;;;;;25.90;53.17;100479.88;5100745;28;20529;-68
2022/07/30 06:19:40;;;;;;;11.27;7.17;;;;;;;25.10;55.26;100486.53;5101517;28;20451;-69
2022/07/30 06:22:06;;;;;;;6.93;5.90;;;;;;;26.10;52.65;100490.50;5101155;28;20471;-69
2022/07/30 06:24:33;;;;;;;6.87;5.90;;;;;;;26.10;52.63;100489.69;5101470;28;20427;-69
2022/07/30 06:27:00;;;;;;;6.87;5.90;;;;;;;24.31;56.80;100502.75;5100507;28;20483;-69
2022/07/30 06:29:27;;;;;;;8.13;5.80;;;;;;;25.87;52.38;100494.03;5101300;28;21275;-69
2022/07/30 06:31:55;;;;;;;8.17;6.67;;;;;;;24.99;54.16;100492.75;5101130;28;20462;-66
2022/07/30 06:34:22;;;;;;;9.50;6.37;;;;;;;25.97;51.87;100492.63;5101128;28;20493;-68
2022/07/30 06:36:49;;;;;;;6.80;6.17;;;;;;;26.59;49.11;100486.66;5100513;28;20575;-69
2022/07/30 06:39:16;;;;;;;7.30;6.60;;;;;;;26.53;48.96;100498.59;5101088;28;20474;-67
2022/07/30 06:41:44;;;;;;;6.73;6.03;;;;;;;26.92;47.80;100483.25;5099842;28;20475;-69
2022/07/30 06:44:11;;;;;;;6.40;5.77;;;;;;;28.41;45.37;100490.53;5101278;28;20950;-67
2022/07/30 06:46:38;;;;;;;7.77;6.00;;;;;;;28.22;46.36;100485.31;5099089;28;20493;-67
2022/07/30 06:49:06;;;;;;;11.43;6.90;;;;;;;27.49;46.47;100481.63;5100442;28;20505;-68
2022/07/30 06:51:33;;;;;;;6.30;5.70;;;;;;;29.14;43.28;100482.94;5100132;28;20528;-66
2022/07/30 06:54:00;;;;;;;7.40;6.07;;;;;;;28.71;43.29;100484.63;5100955;28;20431;-67
2022/07/30 06:56:27;;;;;;;6.57;5.60;;;;;;;29.15;43.35;100486.53;5099303;28;20467;-67
2022/07/30 06:58:53;;;;;;;6.97;6.37;;;;;;;29.16;42.09;100482.72;5100321;28;20460;-67
2022/07/30 07:01:22;;;;;;;7.43;6.27;;;;;;;29.60;40.93;100482.59;5100085;28;20475;-68
2022/07/30 07:03:49;;;;;;;7.33;6.63;;;;;;;27.77;45.18;100481.56;5100446;28;20521;-67
2022/07/30 07:06:17;;;;;;;9.10;5.67;;;;;;;28.41;44.14;100485.88;5100110;28;20471;-67
2022/07/30 07:08:44;;;;;;;7.73;6.63;;;;;;;28.80;42.46;100494.13;5100417;28;20443;-67
2022/07/30 07:11:10;;;;;;;9.57;7.20;;;;;;;28.26;44.74;100493.88;5099980;28;20549;-67
2022/07/30 07:13:37;;;;;;;9.23;7.00;;;;;;;28.79;42.66;100486.13;5099665;28;20482;-67
2022/07/30 07:16:04;;;;;;;7.50;6.00;;;;;;;28.97;42.62;100485.78;5099966;28;20474;-67
2022/07/30 07:18:31;;;;;;;9.37;7.37;;;;;;;28.10;43.06;100484.59;5100088;28;20447;-67
2022/07/30 07:20:58;;;;;;;7.90;7.20;;;;;;;28.51;43.66;100490.69;5099880;28;20478;-67
2022/07/30 07:23:27;;;;;;;10.40;6.83;;;;;;;29.20;41.43;100481.09;5100365;28;20580;-67
2022/07/30 07:25:55;;;;;;;10.17;8.17;;;;;;;29.99;39.17;100485.16;5099686;28;20717;-67
2022/07/30 07:28:22;;;;;;;8.10;7.03;;;;;;;29.33;40.60;100482.63;5099767;28;20960;-67
2022/07/30 07:30:48;;;;;;;8.20;7.30;;;;;;;29.85;40.09;100485.59;5099522;28;20471;-67
2022/07/30 07:33:15;;;;;;;8.30;7.07;;;;;;;30.39;38.53;100484.63;5100248;28;20428;-67
2022/07/30 07:35:42;;;;;;;8.37;6.43;;;;;;;31.66;35.52;100484.53;5099199;28;21031;-67
2022/07/30 07:38:09;;;;;;;9.30;8.33;;;;;;;30.86;37.81;100485.69;5117308;28;20473;-67
2022/07/30 07:40:37;;;;;;;7.77;7.07;;;;;;;31.44;36.64;100491.13;5119701;28;20990;-67
2022/07/30 07:43:04;;;;;;;9.47;7.33;;;;;;;31.74;35.48;100486.75;5119734;28;20490;-67
2022/07/30 07:45:31;;;;;;;8.07;7.27;;;;;;;31.64;35.16;100481.22;5119389;28;20461;-67
2022/07/30 07:47:58;;;;;;;9.13;7.60;;;;;;;31.33;36.14;100478.38;5119459;28;20430;-67
2022/07/30 07:50:25;;;;;;;7.77;6.90;;;;;;;31.87;35.60;100486.19;5119241;28;20461;-67
2022/07/30 07:52:52;;;;;;;10.60;8.00;;;;;;;30.78;36.32;100486.22;5120104;28;20853;-67
2022/07/30 07:55:19;;;;;;;8.00;6.47;;;;;;;32.02;35.31;100481.75;5119071;28;20444;-67
2022/07/30 07:57:47;;;;;;;8.97;8.10;;;;;;;31.21;35.88;100491.63;5119415;28;20446;-67
2022/07/30 08:00:15;;;;;;;10.13;8.10;;;;;;;30.38;37.35;100488.50;5119283;28;20986;-68
2022/07/30 08:02:41;;;;;;;8.50;7.60;;;;;;;31.01;36.81;100493.22;5119138;28;20430;-67
2022/07/30 08:05:11;;;;;;;9.57;8.67;;;;;;;32.61;33.14;100491.34;5118836;28;20434;-67
2022/07/30 08:07:38;;;;;;;8.73;7.60;;;;;;;31.13;37.59;100493.00;5119330;28;20430;-68
2022/07/30 08:10:05;;;;;;;9.40;7.53;;;;;;;30.72;37.88;100488.09;5119701;28;20495;-67
2022/07/30 08:12:32;;;;;;;11.83;7.50;;;;;;;29.28;43.21;100480.66;5118552;28;20454;-67
2022/07/30 08:15:01;;;;;;;15.67;9.03;;;;;;;26.03;50.41;100478.81;5119533;28;20426;-67
2022/07/30 08:17:28;;;;;;;10.80;9.70;;;;;;;25.11;52.97;100473.66;5118596;28;20527;-67
2022/07/30 08:19:58;;;;;;;11.77;10.57;;;;;;;24.61;55.54;100480.16;5119253;28;20461;-66
2022/07/30 08:22:25;;;;;;;12.83;9.80;;;;;;;26.26;51.88;100471.69;5119080;28;20477;-68
2022/07/30 08:24:52;;;;;;;11.27;10.07;;;;;;;27.64;47.36;100479.16;5119607;28;20469;-68
2022/07/30 08:27:19;;;;;;;11.53;10.23;;;;;;;29.26;44.14;100478.16;5118118;28;20474;-67
2022/07/30 08:29:46;;;;;;;12.20;10.90;;;;;;;30.29;40.94;100478.19;5119049;28;20501;-67
2022/07/30 08:32:14;;;;;;;10.50;9.43;;;;;;;29.39;43.18;100476.94;5119009;28;20473;-67
2022/07/30 08:34:40;;;;;;;11.07;9.93;;;;;;;30.54;40.28;100477.56;5118831;28;20570;-67
2022/07/30 08:37:07;;;;;;;12.60;11.30;;;;;;;29.70;41.09;100479.13;5118313;28;20507;-67
2022/07/30 08:39:34;;;;;;;11.53;10.33;;;;;;;29.68;41.69;100480.19;5119132;28;20437;-67
2022/07/30 08:42:03;;;;;;;10.40;8.83;;;;;;;30.80;39.07;100484.00;5118276;28;20485;-67
2022/07/30 08:44:30;;;;;;;10.37;9.30;;;;;;;29.55;41.57;100477.91;5119019;28;20488;-67
2022/07/30 08:46:59;;;;;;;10.60;9.50;;;;;;;28.48;43.40;100477.44;5117504;28;20478;-67
2022/07/30 08:49:31;;;;;;;9.27;8.37;;;;;;;30.18;39.26;100474.56;5118964;28;20471;-67
2022/07/30 08:51:58;;;;;;;9.20;8.30;;;;;;;31.50;36.73;100470.69;5118287;28;20465;-67
2022/07/30 08:54:25;;;;;;;10.33;9.10;;;;;;;30.49;39.41;100470.06;5118811;28;20438;-67
2022/07/30 08:56:52;;;;;;;9.90;8.93;;;;;;;31.74;37.48;100478.47;5113738;28;20474;-67
2022/07/30 08:59:19;;;;;;;7.87;7.27;;;;;;;32.27;35.20;100478.13;5112776;28;20518;-67
2022/07/30 09:01:45;;;;;;;9.30;8.60;;;;;;;32.00;35.79;100482.03;5131837;27;20476;-67
2022/07/30 09:04:13;;;;;;;9.13;8.33;;;;;;;32.71;34.61;100482.16;5112943;28;20493;-67
2022/07/30 09:06:41;;;;;;;11.70;8.27;;;;;;;31.48;35.87;100480.34;5107939;28;20491;-67
2022/07/30 09:09:08;;;;;;;9.63;8.73;;;;;;;31.52;34.77;100489.78;5099010;28;20507;-68
2022/07/30 09:11:35;;;;;;;12.33;9.80;;;;;;;30.66;37.29;100489.19;5100098;28;20489;-68
2022/07/30 09:14:08;;;;;;;9.90;9.00;;;;;;;31.96;36.27;100491.16;5115162;28;20447;-68
2022/07/30 09:16:35;;;;;;;10.40;9.50;;;;;;;30.66;37.90;100493.88;5118256;27;20507;-68
2022/07/30 09:19:12;;;;;;;10.23;9.23;;;;;;;30.68;38.33;100488.94;5123237;27;20546;-68
2022/07/30 09:21:39;;;;;;;11.90;10.40;;;;;;;31.61;35.47;100490.88;5102256;28;20470;-68
2022/07/30 09:24:08;;;;;;;11.00;10.03;;;;;;;30.37;37.85;100484.06;5117461;27;20496;-68
2022/07/30 09:26:53;;;;;;;11.23;8.33;;;;;;;31.49;37.55;100487.50;5107188;27;20474;-68
2022/07/30 09:29:22;;;;;;;9.43;8.63;;;;;;;32.24;34.87;100489.78;5117934;27;20458;-68
2022/07/30 09:31:56;;;;;;;8.00;7.20;;;;;;;31.94;35.10;100494.19;5101430;28;20537;-68
2022/07/30 09:34:27;;;;;;;8.20;7.30;;;;;;;31.64;36.05;100487.56;5102469;28;21368;-68
2022/07/30 09:36:55;;;;;;;9.00;8.10;;;;;;;31.19;36.79;100489.13;5109891;28;20511;-68
2022/07/30 09:39:31;;;;;;;9.07;7.93;;;;;;;32.69;33.83;100493.56;5114222;27;20443;-68
2022/07/30 09:41:58;;;;;;;7.97;6.90;;;;;;;32.40;34.79;100494.16;5101651;28;20489;-67
2022/07/30 09:44:25;;;;;;;7.93;7.20;;;;;;;31.77;35.79;100497.25;5122496;28;20535;-67
2022/07/30 09:46:53;;;;;;;8.07;7.37;;;;;;;32.32;34.82;100496.66;5111866;27;20474;-67
2022/07/30 09:49:21;;;;;;;11.87;8.97;;;;;;;31.62;36.16;100500.84;5101765;28;20512;-67
2022/07/30 09:51:48;;;;;;;10.00;7.30;;;;;;;31.16;36.04;100495.19;5107024;28;20474;-67
2022/07/30 09:54:15;;;;;;;7.40;6.70;;;;;;;27.98;42.48;100509.41;5122517;28;20430;-67
2022/07/30 09:56:44;;;;;;;8.73;7.83;;;;;;;30.28;38.62;100502.19;5132987;27;20523;-67
2022/07/30 09:59:26;;;;;;;8.10;7.40;;;;;;;32.06;35.37;100503.06;5129667;27;20467;-67
2022/07/30 10:01:55;;;;;;;7.07;6.37;;;;;;;30.87;36.93;100505.84;5113061;27;20495;-67
2022/07/30 10:04:26;;;;;;;8.10;7.33;;;;;;;31.64;36.20;100506.09;5101523;28;20479;-67
2022/07/30 10:06:53;;;;;;;7.43;6.57;;;;;;;29.87;38.20;100499.13;5101317;28;21232;-67
2022/07/30 10:09:28;;;;;;;7.37;6.60;;;;;;;29.09;39.57;100507.66;5114809;27;20446;-67
2022/07/30 10:11:58;;;;;;;5.70;4.93;;;;;;;28.83;41.29;100504.59;5120370;28;20497;-67
2022/07/30 10:14:29;;;;;;;8.63;6.80;;;;;;;28.72;40.43;100514.66;5121987;28;20452;-67
2022/07/30 10:16:56;;;;;;;6.30;5.70;;;;;;;28.77;40.84;100510.31;5107301;28;20466;-67
2022/07/30 10:19:23;;;;;;;8.73;6.10;;;;;;;28.64;40.20;100511.50;5101565;28;20484;-67
2022/07/30 10:21:50;;;;;;;7.30;5.40;;;;;;;29.83;39.14;100503.53;5100544;28;20467;-66
2022/07/30 10:24:17;;;;;;;7.07;6.07;;;;;;;31.62;35.90;100503.59;5110231;28;20474;-67
2022/07/30 10:26:45;;;;;;;9.90;6.80;;;;;;;31.71;34.62;100493.63;5120766;28;20466;-66
2022/07/30 10:29:16;;;;;;;8.27;7.47;;;;;;;30.66;36.17;100491.97;5121471;28;20458;-66
2022/07/30 10:31:43;;;;;;;7.13;6.53;;;;;;;31.56;35.16;100503.88;5121231;28;20473;-67
2022/07/30 10:34:10;;;;;;;8.97;8.07;;;;;;;31.70;36.24;100504.97;5121242;28;20840;-67
2022/07/30 10:36:37;;;;;;;10.53;7.83;;;;;;;31.60;36.97;100505.00;5120828;28;20478;-67
2022/07/30 10:39:06;;;;;;;9.03;8.07;;;;;;;28.87;40.44;100511.28;5121651;28;20483;-67
2022/07/30 10:41:40;;;;;;;10.00;9.00;;;;;;;29.46;40.00;100507.84;5120780;28;20469;-67
2022/07/30 10:44:30;;;;;;;10.37;8.97;;;;;;;28.99;40.90;100510.31;5121174;28;20512;-67
2022/07/30 10:47:02;;;;;;;10.00;9.07;;;;;;;28.84;41.39;100517.28;5120007;28;20477;-67
2022/07/30 10:49:29;;;;;;;10.47;9.27;;;;;;;29.02;39.39;100507.03;5121362;28;20485;-67
2022/07/30 10:51:56;;;;;;;8.67;7.67;;;;;;;27.98;42.69;100514.91;5120011;28;20538;-66
2022/07/30 10:54:36;;;;;;;7.93;7.13;;;;;;;27.71;42.49;100506.47;5121373;28;20450;-66
2022/07/30 10:57:05;;;;;;;10.47;8.70;;;;;;;27.10;43.96;100501.47;5119871;28;20491;-66
2022/07/30 11:00:08;;;;;;;11.20;9.37;;;;;;;27.98;40.97;100498.41;5120886;28;20458;-66
2022/07/30 11:02:35;;;;;;;10.23;6.47;;;;;;;29.45;40.28;100497.91;5120303;28;21199;-66
2022/07/30 11:05:24;;;;;;;8.87;7.57;;;;;;;29.72;38.87;100496.22;5120908;28;20458;-66
2022/07/30 11:07:51;;;;;;;10.10;9.10;;;;;;;29.73;37.68;100506.16;5120877;28;20473;-66
2022/07/30 11:10:39;;;;;;;7.60;6.77;;;;;;;30.80;37.10;100500.56;5120015;28;20457;-66
2022/07/30 11:13:06;;;;;;;7.60;6.07;;;;;;;31.81;33.37;100497.53;5119718;28;20537;-66
2022/07/30 11:15:53;;;;;;;6.73;5.87;;;;;;;31.17;35.52;100497.69;5119263;28;20565;-66
2022/07/30 11:18:21;;;;;;;7.60;5.07;;;;;;;31.18;34.40;100493.00;5119378;28;20530;-67
2022/07/30 11:21:16;;;;;;;7.37;5.37;;;;;;;31.00;36.21;100502.59;5117378;27;20494;-67